createdAt,value
2023-01-29T00:02:10.897Z,-0.90
2023-01-29T00:04:37.833Z,-0.94
2023-01-29T00:07:04.766Z,-1.01
2023-01-29T00:09:32.094Z,-1.06
2023-01-29T00:12:01.307Z,-1.12
2023-01-29T00:14:28.460Z,-1.19
2023-01-29T00:16:55.524Z,-1.24
2023-01-29T00:19:22.419Z,-1.28
2023-01-29T00:21:49.370Z,-1.32
2023-01-29T00:24:16.374Z,-1.36
2023-01-29T00:26:43.302Z,-1.42
2023-01-29T00:29:10.230Z,-1.43
2023-01-29T00:31:37.222Z,-1.49
2023-01-29T00:34:04.166Z,-1.48
2023-01-29T00:36:31.051Z,-1.51
2023-01-29T00:39:02.754Z,-1.49
2023-01-29T00:41:51.473Z,-1.48
2023-01-29T00:44:37.120Z,-1.47
2023-01-29T00:47:25.620Z,-1.51
2023-01-29T00:49:52.453Z,-1.55
2023-01-29T00:52:25.123Z,-1.56
2023-01-29T00:54:52.939Z,-1.57
2023-01-29T00:57:21.533Z,-1.52
2023-01-29T00:59:48.729Z,-1.53
2023-01-29T01:02:35.716Z,-1.57
2023-01-29T01:05:07.633Z,-1.61
2023-01-29T01:07:35.182Z,-1.65
2023-01-29T01:10:20.456Z,-1.66
2023-01-29T01:13:00.380Z,-1.66
2023-01-29T01:15:39.259Z,-1.67
2023-01-29T01:18:06.660Z,-1.66
2023-01-29T01:20:36.147Z,-1.65
2023-01-29T01:23:04.611Z,-1.63
2023-01-29T01:25:31.510Z,-1.65
2023-01-29T01:28:03.003Z,-1.66
2023-01-29T01:30:29.970Z,-1.64
2023-01-29T01:32:56.848Z,-1.64
2023-01-29T01:35:23.789Z,-1.60
2023-01-29T01:37:50.776Z,-1.61
2023-01-29T01:40:21.307Z,-1.61
2023-01-29T01:42:50.908Z,-1.61
2023-01-29T01:45:36.337Z,-1.59
2023-01-29T01:48:14.758Z,-1.59
2023-01-29T01:51:06.413Z,-1.58
2023-01-29T01:53:43.439Z,-1.52
2023-01-29T01:56:18.478Z,-1.48
2023-01-29T01:58:59.436Z,-1.43
2023-01-29T02:01:30.731Z,-1.40
2023-01-29T02:04:24.582Z,-1.36
2023-01-29T02:07:12.820Z,-1.32
2023-01-29T02:09:49.105Z,-1.30
2023-01-29T02:12:17.234Z,-1.28
2023-01-29T02:14:44.948Z,-1.24
2023-01-29T02:17:16.191Z,-1.19
2023-01-29T02:20:20.828Z,-1.16
2023-01-29T02:23:23.352Z,-1.12
2023-01-29T02:26:56.696Z,-1.07
2023-01-29T02:29:42.626Z,-0.96
2023-01-29T02:32:42.163Z,-0.90
2023-01-29T02:35:32.241Z,-0.87
2023-01-29T02:38:13.096Z,-0.85
2023-01-29T02:40:58.366Z,-0.80
2023-01-29T02:44:17.317Z,-0.78
2023-01-29T02:46:57.039Z,-0.75
2023-01-29T02:49:37.523Z,-0.69
2023-01-29T02:52:43.260Z,-0.61
2023-01-29T02:55:21.983Z,-0.62
2023-01-29T02:57:58.016Z,-0.56
2023-01-29T03:00:36.896Z,-0.57
2023-01-29T03:03:30.208Z,-0.57
2023-01-29T03:06:08.820Z,-0.58
2023-01-29T03:08:45.683Z,-0.59
2023-01-29T03:11:17.627Z,-0.63
2023-01-29T03:14:24.433Z,-0.60
2023-01-29T03:16:54.444Z,-0.58
2023-01-29T03:19:36.243Z,-0.62
2023-01-29T03:22:13.567Z,-0.60
2023-01-29T03:25:23.363Z,-0.60
2023-01-29T03:28:20.852Z,-0.62
2023-01-29T03:31:11.285Z,-0.63
2023-01-29T03:34:01.996Z,-0.64
2023-01-29T03:36:55.821Z,-0.59
2023-01-29T03:39:28.424Z,-0.54
2023-01-29T03:42:37.977Z,-0.48
2023-01-29T03:45:57.064Z,-0.61
2023-01-29T03:48:49.679Z,-0.62
2023-01-29T03:51:35.331Z,-0.53
2023-01-29T03:54:53.699Z,-0.45
2023-01-29T03:57:35.675Z,-0.40
2023-01-29T04:00:21.201Z,-0.38
2023-01-29T04:03:26.443Z,-0.43
2023-01-29T04:06:09.897Z,-0.37
2023-01-29T04:09:14.638Z,-0.41
2023-01-29T04:12:09.350Z,-0.47
2023-01-29T04:14:40.021Z,-0.45
2023-01-29T04:17:16.451Z,-0.46
2023-01-29T04:19:54.532Z,-0.41
2023-01-29T04:22:31.299Z,-0.40
2023-01-29T04:25:09.442Z,-0.48
2023-01-29T04:28:02.536Z,-0.48
2023-01-29T04:30:56.433Z,-0.51
2023-01-29T04:33:50.574Z,-0.52
2023-01-29T04:36:26.855Z,-0.55
2023-01-29T04:39:11.012Z,-0.55
2023-01-29T04:42:32.699Z,-0.56
2023-01-29T04:45:02.218Z,-0.56
2023-01-29T04:47:57.393Z,-0.51
2023-01-29T04:50:35.278Z,-0.50
2023-01-29T04:54:00.321Z,-0.51
2023-01-29T04:56:49.203Z,-0.49
2023-01-29T04:59:42.028Z,-0.52
2023-01-29T05:02:12.733Z,-0.48
2023-01-29T05:04:44.619Z,-0.42
2023-01-29T05:07:15.997Z,-0.42
2023-01-29T05:09:46.468Z,-0.40
2023-01-29T05:12:16.611Z,-0.35
2023-01-29T05:14:46.698Z,-0.33
2023-01-29T05:17:20.630Z,-0.29
2023-01-29T05:19:48.604Z,-0.25
2023-01-29T05:22:18.686Z,-0.23
2023-01-29T05:24:46.586Z,-0.22
2023-01-29T05:27:41.443Z,-0.17
2023-01-29T05:30:10.519Z,-0.13
2023-01-29T05:32:37.403Z,-0.07
2023-01-29T05:35:04.668Z,-0.08
2023-01-29T05:37:31.603Z,-0.03
2023-01-29T05:39:58.504Z,-0.01
2023-01-29T05:42:25.409Z,0.03
2023-01-29T05:44:52.631Z,0.05
2023-01-29T05:47:21.194Z,0.10
2023-01-29T05:49:48.033Z,0.15
2023-01-29T05:52:14.858Z,0.14
2023-01-29T05:54:41.756Z,0.15
2023-01-29T05:57:08.662Z,0.17
2023-01-29T05:59:35.538Z,0.22
2023-01-29T06:02:02.497Z,0.26
2023-01-29T06:04:29.333Z,0.26
2023-01-29T06:06:57.035Z,0.27
2023-01-29T06:09:23.856Z,0.26
2023-01-29T06:11:50.651Z,0.28
2023-01-29T06:14:17.531Z,0.29
2023-01-29T06:16:44.355Z,0.33
2023-01-29T06:19:11.220Z,0.36
2023-01-29T06:21:38.143Z,0.38
2023-01-29T06:24:05.889Z,0.45
2023-01-29T06:26:32.868Z,0.50
2023-01-29T06:28:59.819Z,0.52
2023-01-29T06:31:38.544Z,0.50
2023-01-29T06:34:07.811Z,0.51
2023-01-29T06:36:35.201Z,0.47
2023-01-29T06:39:02.223Z,0.46
2023-01-29T06:41:29.084Z,0.43
2023-01-29T06:43:55.955Z,0.43
2023-01-29T06:46:22.802Z,0.45
2023-01-29T06:48:49.848Z,0.46
2023-01-29T06:51:16.879Z,0.45
2023-01-29T06:53:46.081Z,0.40
2023-01-29T06:56:13.971Z,0.42
2023-01-29T06:58:41.419Z,0.39
2023-01-29T07:01:19.702Z,0.43
2023-01-29T07:03:56.069Z,0.47
2023-01-29T07:06:29.219Z,0.51
2023-01-29T07:08:56.500Z,0.47
2023-01-29T07:11:23.460Z,0.50
2023-01-29T07:13:50.301Z,0.52
2023-01-29T07:16:17.937Z,0.52
2023-01-29T07:18:45.121Z,0.58
2023-01-29T07:21:12.029Z,0.61
2023-01-29T07:23:38.927Z,0.60
2023-01-29T07:26:06.972Z,0.60
2023-01-29T07:28:40.143Z,0.60
2023-01-29T07:31:08.868Z,0.58
2023-01-29T07:33:35.699Z,0.60
2023-01-29T07:36:02.854Z,0.66
2023-01-29T07:38:29.714Z,0.65
2023-01-29T07:40:56.801Z,0.65
2023-01-29T07:43:25.116Z,0.68
2023-01-29T07:45:53.044Z,0.71
2023-01-29T07:48:19.988Z,0.69
2023-01-29T07:50:55.812Z,0.67
2023-01-29T07:53:23.566Z,0.68
2023-01-29T07:55:51.064Z,0.65
2023-01-29T07:58:17.926Z,0.68
2023-01-29T08:00:45.743Z,0.68
2023-01-29T08:03:17.185Z,0.75
2023-01-29T08:05:45.175Z,0.75
2023-01-29T08:08:12.772Z,0.76
2023-01-29T08:10:40.669Z,0.75
2023-01-29T08:13:08.978Z,0.83
2023-01-29T08:15:38.783Z,0.87
2023-01-29T08:18:06.405Z,0.86
2023-01-29T08:20:33.480Z,0.84
2023-01-29T08:23:08.580Z,0.84
2023-01-29T08:25:36.396Z,0.86
2023-01-29T08:28:04.538Z,0.87
2023-01-29T08:30:34.275Z,0.85
2023-01-29T08:33:03.413Z,0.89
2023-01-29T08:35:30.446Z,0.86
2023-01-29T08:38:02.387Z,0.83
2023-01-29T08:40:36.548Z,0.81
2023-01-29T08:43:08.717Z,0.81
2023-01-29T08:45:40.971Z,0.78
2023-01-29T08:48:09.094Z,0.77
2023-01-29T08:50:37.253Z,0.79
2023-01-29T08:53:07.988Z,0.85
2023-01-29T08:55:40.749Z,0.90
2023-01-29T08:58:11.349Z,0.94
2023-01-29T09:00:39.053Z,0.99
2023-01-29T09:03:07.862Z,1.05
2023-01-29T09:05:36.439Z,1.05
2023-01-29T09:08:04.419Z,1.06
2023-01-29T09:10:31.880Z,1.11
2023-01-29T09:12:58.993Z,1.10
2023-01-29T09:15:26.072Z,1.09
2023-01-29T09:17:53.226Z,1.12
2023-01-29T09:20:20.706Z,1.17
2023-01-29T09:22:48.041Z,1.21
2023-01-29T09:25:15.619Z,1.28
2023-01-29T09:27:42.844Z,1.32
2023-01-29T09:30:10.743Z,1.33
2023-01-29T09:32:53.083Z,1.35
2023-01-29T09:35:22.929Z,1.35
2023-01-29T09:37:51.776Z,1.39
2023-01-29T09:41:12.913Z,1.42
2023-01-29T09:44:04.834Z,1.46
2023-01-29T09:46:43.576Z,1.50
2023-01-29T09:49:35.725Z,1.54
2023-01-29T09:52:11.367Z,1.60
2023-01-29T09:54:51.036Z,1.63
2023-01-29T09:57:45.692Z,1.66
2023-01-29T10:00:25.279Z,1.69
2023-01-29T10:03:10.730Z,1.75
2023-01-29T10:05:49.512Z,1.77
2023-01-29T10:08:40.356Z,1.81
2023-01-29T10:11:18.930Z,1.86
2023-01-29T10:14:04.553Z,1.91
2023-01-29T10:16:37.379Z,1.96
2023-01-29T10:19:42.636Z,1.99
2023-01-29T10:22:21.548Z,2.04
2023-01-29T10:24:57.577Z,2.07
2023-01-29T10:27:33.782Z,2.09
2023-01-29T10:30:06.891Z,2.12
2023-01-29T10:32:37.557Z,2.11
2023-01-29T10:35:23.570Z,2.08
2023-01-29T10:37:54.585Z,2.07
2023-01-29T10:40:44.792Z,2.07
2023-01-29T10:43:19.722Z,2.07
2023-01-29T10:45:57.706Z,2.07
2023-01-29T10:48:56.131Z,2.08
2023-01-29T10:51:35.134Z,2.09
2023-01-29T10:55:03.201Z,2.12
2023-01-29T10:58:18.006Z,2.13
2023-01-29T11:00:45.723Z,2.15
2023-01-29T11:03:28.622Z,2.19
2023-01-29T11:06:27.035Z,2.26
2023-01-29T11:09:06.544Z,2.34
2023-01-29T11:11:54.532Z,2.39
2023-01-29T11:14:54.788Z,2.42
2023-01-29T11:17:26.090Z,2.43
2023-01-29T11:19:55.761Z,2.46
2023-01-29T11:22:29.099Z,2.51
2023-01-29T11:25:20.959Z,2.53
2023-01-29T11:27:57.272Z,2.54
2023-01-29T11:30:30.584Z,2.53
2023-01-29T11:33:08.050Z,2.54
2023-01-29T11:35:36.710Z,2.59
2023-01-29T11:38:19.643Z,2.65
2023-01-29T11:40:48.066Z,2.72
2023-01-29T11:43:21.253Z,2.75
2023-01-29T11:45:58.917Z,2.76
2023-01-29T11:48:39.685Z,2.76
2023-01-29T11:51:08.294Z,2.79
2023-01-29T11:53:49.605Z,2.83
2023-01-29T11:56:22.450Z,2.86
2023-01-29T11:58:53.313Z,2.87
2023-01-29T12:01:38.502Z,2.86
2023-01-29T12:04:22.427Z,2.85
2023-01-29T12:06:53.462Z,2.83
2023-01-29T12:09:27.353Z,2.81
2023-01-29T12:11:54.929Z,2.83
2023-01-29T12:14:33.405Z,2.84
2023-01-29T12:17:16.306Z,2.85
2023-01-29T12:19:56.949Z,2.84
2023-01-29T12:22:43.094Z,2.83
2023-01-29T12:25:31.550Z,2.80
2023-01-29T12:28:24.665Z,2.79
2023-01-29T12:31:13.101Z,2.80
2023-01-29T12:34:39.208Z,2.83
2023-01-29T12:37:16.895Z,2.82
2023-01-29T12:39:44.094Z,2.82
2023-01-29T12:42:20.780Z,2.81
2023-01-29T12:44:56.666Z,2.81
2023-01-29T12:47:41.873Z,2.83
2023-01-29T12:50:32.649Z,2.82
2023-01-29T12:53:35.062Z,2.80
2023-01-29T12:56:43.753Z,2.81
2023-01-29T12:59:24.773Z,2.84
2023-01-29T13:01:59.711Z,2.89
2023-01-29T13:04:42.361Z,2.93
2023-01-29T13:07:30.665Z,2.96
2023-01-29T13:10:15.958Z,3.01
2023-01-29T13:13:05.499Z,2.98
2023-01-29T13:15:40.746Z,3.01
2023-01-29T13:18:37.605Z,3.01
2023-01-29T13:21:05.795Z,3.03
2023-01-29T13:23:39.404Z,3.01
2023-01-29T13:26:06.878Z,3.01
2023-01-29T13:28:33.952Z,2.98
2023-01-29T13:31:24.907Z,2.94
2023-01-29T13:34:28.588Z,2.93
2023-01-29T13:37:01.590Z,2.93
2023-01-29T13:39:38.016Z,2.93
2023-01-29T13:42:20.693Z,2.94
2023-01-29T13:44:51.331Z,2.94
2023-01-29T13:47:31.850Z,2.97
2023-01-29T13:50:04.443Z,2.97
2023-01-29T13:52:45.119Z,2.98
2023-01-29T13:55:31.238Z,2.96
2023-01-29T13:58:01.367Z,2.93
2023-01-29T14:00:34.361Z,2.92
2023-01-29T14:03:01.230Z,2.92
2023-01-29T14:05:31.208Z,2.92
2023-01-29T14:08:13.831Z,2.91
2023-01-29T14:10:43.671Z,2.89
2023-01-29T14:13:19.414Z,2.90
2023-01-29T14:15:59.370Z,2.91
2023-01-29T14:18:29.281Z,2.93
2023-01-29T14:21:21.879Z,2.96
2023-01-29T14:23:58.996Z,2.96
2023-01-29T14:26:34.830Z,2.97
2023-01-29T14:29:14.444Z,2.99
2023-01-29T14:31:55.312Z,2.98
2023-01-29T14:34:33.910Z,2.98
2023-01-29T14:37:28.185Z,3.00
2023-01-29T14:39:59.925Z,3.03
2023-01-29T14:42:37.056Z,3.03
2023-01-29T14:45:28.637Z,3.06
2023-01-29T14:47:57.232Z,3.12
2023-01-29T14:50:32.826Z,3.15
2023-01-29T14:53:12.914Z,3.17
2023-01-29T14:55:48.523Z,3.18
2023-01-29T14:58:28.071Z,3.19
2023-01-29T15:01:01.940Z,3.17
2023-01-29T15:03:50.409Z,3.16
2023-01-29T15:06:30.562Z,3.17
2023-01-29T15:09:48.464Z,3.17
2023-01-29T15:12:50.794Z,3.19
2023-01-29T15:15:57.974Z,3.19
2023-01-29T15:18:42.672Z,3.18
2023-01-29T15:21:18.854Z,3.13
2023-01-29T15:23:48.874Z,3.12
2023-01-29T15:26:24.772Z,3.12
2023-01-29T15:29:04.649Z,3.13
2023-01-29T15:31:32.594Z,3.15
2023-01-29T15:34:06.343Z,3.12
2023-01-29T15:36:33.832Z,3.10
2023-01-29T15:39:09.474Z,3.07
2023-01-29T15:41:36.360Z,3.09
2023-01-29T15:44:03.422Z,3.11
2023-01-29T15:46:36.870Z,3.11
2023-01-29T15:49:14.519Z,3.08
2023-01-29T15:51:42.148Z,3.07
2023-01-29T15:54:17.114Z,3.06
2023-01-29T15:56:52.062Z,3.07
2023-01-29T15:59:30.711Z,3.07
2023-01-29T16:01:58.129Z,3.08
2023-01-29T16:04:31.437Z,3.10
2023-01-29T16:07:00.790Z,3.11
2023-01-29T16:09:29.480Z,3.07
2023-01-29T16:11:59.232Z,3.06
2023-01-29T16:14:28.627Z,3.05
2023-01-29T16:16:55.699Z,3.02
2023-01-29T16:19:26.036Z,3.00
2023-01-29T16:22:08.380Z,3.02
2023-01-29T16:24:37.311Z,3.02
2023-01-29T16:27:14.942Z,3.04
2023-01-29T16:29:41.930Z,3.04
2023-01-29T16:32:12.361Z,3.06
2023-01-29T16:34:48.194Z,3.07
2023-01-29T16:37:28.513Z,3.06
2023-01-29T16:39:56.583Z,3.05
2023-01-29T16:42:31.698Z,3.07
2023-01-29T16:45:24.435Z,3.08
2023-01-29T16:48:02.558Z,3.06
2023-01-29T16:50:46.417Z,3.05
2023-01-29T16:53:24.617Z,3.05
2023-01-29T16:55:52.872Z,3.04
2023-01-29T16:58:25.298Z,3.06
2023-01-29T17:01:02.211Z,3.05
2023-01-29T17:03:33.866Z,3.05
2023-01-29T17:06:23.303Z,3.02
2023-01-29T17:08:51.865Z,2.99
2023-01-29T17:11:41.763Z,2.98
2023-01-29T17:14:09.586Z,2.96
2023-01-29T17:16:50.432Z,2.97
2023-01-29T17:19:20.824Z,3.00
2023-01-29T17:21:47.890Z,2.99
2023-01-29T17:24:14.736Z,3.01
2023-01-29T17:26:42.301Z,3.00
2023-01-29T17:29:17.691Z,3.01
2023-01-29T17:31:44.604Z,3.00
2023-01-29T17:34:14.801Z,2.99
2023-01-29T17:36:45.999Z,3.00
2023-01-29T17:39:22.988Z,2.97
2023-01-29T17:41:58.557Z,2.96
2023-01-29T17:44:28.675Z,2.94
2023-01-29T17:46:55.592Z,2.92
2023-01-29T17:49:27.959Z,2.92
2023-01-29T17:51:56.987Z,2.91
2023-01-29T17:54:25.748Z,2.90
2023-01-29T17:56:53.963Z,2.90
2023-01-29T17:59:28.561Z,2.90
2023-01-29T18:01:55.807Z,2.90
2023-01-29T18:04:23.323Z,2.89
2023-01-29T18:06:52.053Z,2.90
2023-01-29T18:09:21.464Z,2.89
2023-01-29T18:11:50.895Z,2.89
2023-01-29T18:14:18.235Z,2.90
2023-01-29T18:16:46.606Z,2.91
2023-01-29T18:19:31.013Z,2.92
2023-01-29T18:21:58.037Z,2.91
2023-01-29T18:24:26.544Z,2.91
2023-01-29T18:26:53.841Z,2.92
2023-01-29T18:29:20.864Z,2.87
2023-01-29T18:31:50.649Z,2.81
2023-01-29T18:34:17.609Z,2.77
2023-01-29T18:36:47.636Z,2.77
2023-01-29T18:39:16.094Z,2.79
2023-01-29T18:41:43.019Z,2.82
2023-01-29T18:44:13.064Z,2.87
2023-01-29T18:46:40.167Z,2.89
2023-01-29T18:49:06.991Z,2.89
2023-01-29T18:51:34.301Z,2.92
2023-01-29T18:54:01.324Z,2.90
2023-01-29T18:56:28.442Z,2.91
2023-01-29T18:58:55.995Z,2.92
2023-01-29T19:01:24.017Z,2.91
2023-01-29T19:03:51.024Z,2.90
2023-01-29T19:06:18.131Z,2.88
2023-01-29T19:08:45.052Z,2.87
2023-01-29T19:11:12.673Z,2.87
2023-01-29T19:13:40.874Z,2.86
2023-01-29T19:16:10.432Z,2.85
2023-01-29T19:18:37.676Z,2.81
2023-01-29T19:21:13.623Z,2.80
2023-01-29T19:23:42.500Z,2.80
2023-01-29T19:26:10.733Z,2.80
2023-01-29T19:28:37.620Z,2.78
2023-01-29T19:31:04.750Z,2.80
2023-01-29T19:33:31.774Z,2.78
2023-01-29T19:35:59.801Z,2.81
2023-01-29T19:38:27.783Z,2.82
2023-01-29T19:40:55.388Z,2.80
2023-01-29T19:43:22.302Z,2.80
2023-01-29T19:45:51.023Z,2.81
2023-01-29T19:48:21.326Z,2.83
2023-01-29T19:51:04.768Z,2.83
2023-01-29T19:53:31.789Z,2.83
2023-01-29T19:56:06.300Z,2.82
2023-01-29T19:58:34.440Z,2.82
2023-01-29T20:01:12.463Z,2.85
2023-01-29T20:03:39.496Z,2.86
2023-01-29T20:06:07.228Z,2.85
2023-01-29T20:08:36.022Z,2.86
2023-01-29T20:11:03.170Z,2.89
2023-01-29T20:13:30.351Z,2.90
2023-01-29T20:15:57.500Z,2.91
2023-01-29T20:18:24.412Z,2.94
2023-01-29T20:20:53.153Z,2.96
2023-01-29T20:23:36.701Z,2.98
2023-01-29T20:26:06.219Z,3.02
2023-01-29T20:28:33.481Z,3.05
2023-01-29T20:31:00.916Z,3.08
2023-01-29T20:33:27.946Z,3.10
2023-01-29T20:36:01.790Z,3.11
2023-01-29T20:38:31.558Z,3.11
2023-01-29T20:41:13.800Z,3.11
2023-01-29T20:43:41.811Z,3.11
2023-01-29T20:46:09.969Z,3.15
2023-01-29T20:48:37.446Z,3.15
2023-01-29T20:51:15.539Z,3.17
2023-01-29T20:53:46.223Z,3.16
2023-01-29T20:56:15.550Z,3.16
2023-01-29T20:58:42.997Z,3.17
2023-01-29T21:01:12.190Z,3.18
2023-01-29T21:03:40.190Z,3.21
2023-01-29T21:06:11.392Z,3.22
2023-01-29T21:08:39.369Z,3.24
2023-01-29T21:11:08.138Z,3.26
2023-01-29T21:13:35.456Z,3.28
2023-01-29T21:16:02.401Z,3.28
2023-01-29T21:18:29.335Z,3.28
2023-01-29T21:20:56.375Z,3.28
2023-01-29T21:23:23.401Z,3.30
2023-01-29T21:25:50.306Z,3.33
2023-01-29T21:28:17.730Z,3.33
2023-01-29T21:30:44.774Z,3.34
2023-01-29T21:33:11.632Z,3.35
2023-01-29T21:35:38.496Z,3.34
2023-01-29T21:38:05.874Z,3.34
2023-01-29T21:40:33.004Z,3.37
2023-01-29T21:43:11.733Z,3.37
2023-01-29T21:45:40.261Z,3.37
2023-01-29T21:48:09.019Z,3.38
2023-01-29T21:50:36.226Z,3.40
2023-01-29T21:53:03.655Z,3.43
2023-01-29T21:55:30.702Z,3.43
2023-01-29T21:57:57.493Z,3.46
2023-01-29T22:00:24.510Z,3.51
2023-01-29T22:02:51.510Z,3.54
2023-01-29T22:05:20.153Z,3.55
2023-01-29T22:07:49.224Z,3.60
2023-01-29T22:10:18.874Z,3.62
2023-01-29T22:12:47.892Z,3.62
2023-01-29T22:15:15.494Z,3.65
2023-01-29T22:17:43.892Z,3.67
2023-01-29T22:20:13.717Z,3.70
2023-01-29T22:22:40.890Z,3.70
2023-01-29T22:25:08.840Z,3.74
2023-01-29T22:27:36.087Z,3.74
2023-01-29T22:30:03.807Z,3.75
2023-01-29T22:32:32.861Z,3.77
2023-01-29T22:34:59.786Z,3.76
2023-01-29T22:37:26.674Z,3.77
2023-01-29T22:39:53.537Z,3.78
2023-01-29T22:42:20.788Z,3.80
2023-01-29T22:44:48.463Z,3.78
2023-01-29T22:47:16.017Z,3.77
2023-01-29T22:49:45.593Z,3.77
2023-01-29T22:52:12.652Z,3.79
2023-01-29T22:54:42.496Z,3.80
2023-01-29T22:57:14.963Z,3.82
2023-01-29T22:59:41.925Z,3.84
2023-01-29T23:02:09.567Z,3.83
2023-01-29T23:04:37.065Z,3.88
2023-01-29T23:07:04.816Z,3.92
2023-01-29T23:09:31.812Z,3.91
2023-01-29T23:11:58.737Z,3.91
2023-01-29T23:14:25.697Z,3.92
2023-01-29T23:16:52.709Z,3.92
2023-01-29T23:19:19.990Z,3.92
2023-01-29T23:21:46.988Z,3.93
2023-01-29T23:24:13.987Z,3.96
2023-01-29T23:26:59.562Z,3.96
2023-01-29T23:29:26.578Z,4.00
2023-01-29T23:31:53.562Z,4.03
2023-01-29T23:34:20.511Z,4.05
2023-01-29T23:36:47.488Z,4.10
2023-01-29T23:39:14.717Z,4.10
2023-01-29T23:41:41.495Z,4.08
2023-01-29T23:44:08.545Z,4.08
2023-01-29T23:46:35.798Z,4.12
2023-01-29T23:49:02.680Z,4.18
2023-01-29T23:51:29.601Z,4.23
2023-01-29T23:53:57.750Z,4.24
2023-01-29T23:56:25.446Z,4.24
2023-01-29T23:58:54.911Z,4.24
